Saint George, UT

11:16 PM MST on December 10, 2016 (GMT -0700)
Saint George Municipal | | Change Station

Elev 2940 ft 37.09 °N, 113.59 °W | Updated 21 minutes ago

Overcast
Overcast
48 °F
Feels Like 48 °F
N
5
Wind Variable Wind from SW

Today
High -- | Low -- °F
--% Chance of Precip.
Yesterday
High -- | Low -- °F
Precip. -- in
Pressure 30.04 in
Visibility 10.0 miles
Clouds Overcast 5000 ft
Dew Point 34 °F
Humidity 58%
Rainfall 0.00 in
Snow Depth Not available.
7:37 AM 5:17 PM
Waxing Gibbous, 89% visible
METAR KSGU 110555Z 22004KT 10SM OVC050 09/01 A3004 RMK AO1 10130 20090 52003
Pressure 30.04 in
Visibility 10.0 miles
Clouds Overcast 5000 ft
Dew Point 34 °F
Humidity 58%
Rainfall 0.00 in
Snow Depth Not available.
7:37 AM 5:17 PM
Waxing Gibbous, 89% visible
METAR KSGU 110555Z 22004KT 10SM OVC050 09/01 A3004 RMK AO1 10130 20090 52003

10-Day Weather Forecast

Almanac

Astronomy

Dec. 10, 2016 Rise Set
Actual Time
Civil Twilight
Nautical Twilight
Astronomical Twilight
Moon
Length of Visible Light
Length of Day
Tomorrow will be .
, % of the Moon is Illuminated

Today's Extremes

State Highs State Lows

Community

WunderPhotos

Upload Photos

1,956,707 photos uploaded!

WunderBlog® & News

Nearby

Air Quality

  Air Quality AQ Index Pollutant
Not available.

Snow Depth

Station Depth Elevation

Earthquake Activity

City Distance Mag. Time & Date
Minimum magnitude displayed is 2.5.

Coastal Water Temperatures

Place Temperature

Stations

Nearby Weather Stations

Station Location Temp. Windchill Dew Point Humidity Wind Precip. Elev Updated Type
                   

Watches & Warnings

There are currently no watches in effect.